sensor_id;sensor_type;location;lat;lon;timestamp;temperature;humidity
13880;DHT22;7010;48.200;16.332;2022-12-13T00:02:23;-2.90;99.90
13880;DHT22;7010;48.200;16.332;2022-12-13T00:05:00;-2.90;99.90
13880;DHT22;7010;48.200;16.332;2022-12-13T00:07:36;-3.00;99.90
13880;DHT22;7010;48.200;16.332;2022-12-13T00:10:21;-3.00;99.90
13880;DHT22;7010;48.200;16.332;2022-12-13T00:13:12;-3.00;99.90
13880;DHT22;7010;48.200;16.332;2022-12-13T00:15:57;-3.00;99.90
13880;DHT22;7010;48.200;16.332;2022-12-13T00:18:33;-3.00;99.90
13880;DHT22;7010;48.200;16.332;2022-12-13T00:21:40;-3.00;99.90
13880;DHT22;7010;48.200;16.332;2022-12-13T00:25:03;-3.10;99.90
13880;DHT22;7010;48.200;16.332;2022-12-13T00:28:00;-3.10;99.90
13880;DHT22;7010;48.200;16.332;2022-12-13T00:30:29;-3.10;99.90
13880;DHT22;7010;48.200;16.332;2022-12-13T00:33:01;-3.10;99.90
13880;DHT22;7010;48.200;16.332;2022-12-13T00:35:30;-3.00;99.90
13880;DHT22;7010;48.200;16.332;2022-12-13T00:38:04;-3.10;99.90
13880;DHT22;7010;48.200;16.332;2022-12-13T00:40:33;-3.10;99.90
13880;DHT22;7010;48.200;16.332;2022-12-13T00:43:04;-3.00;99.90
13880;DHT22;7010;48.200;16.332;2022-12-13T00:45:34;-3.10;99.90
13880;DHT22;7010;48.200;16.332;2022-12-13T00:48:16;-3.10;99.90
13880;DHT22;7010;48.200;16.332;2022-12-13T00:50:54;-3.10;99.90
13880;DHT22;7010;48.200;16.332;2022-12-13T00:53:24;-3.10;99.90
13880;DHT22;7010;48.200;16.332;2022-12-13T00:55:53;-3.10;99.90
13880;DHT22;7010;48.200;16.332;2022-12-13T00:58:32;-3.10;99.90
13880;DHT22;7010;48.200;16.332;2022-12-13T01:01:10;-3.20;99.90
13880;DHT22;7010;48.200;16.332;2022-12-13T01:03:42;-3.20;99.90
13880;DHT22;7010;48.200;16.332;2022-12-13T01:06:14;-3.20;99.90
13880;DHT22;7010;48.200;16.332;2022-12-13T01:08:47;-3.20;99.90
13880;DHT22;7010;48.200;16.332;2022-12-13T01:11:18;-3.20;99.90
13880;DHT22;7010;48.200;16.332;2022-12-13T01:13:49;-3.20;99.90
13880;DHT22;7010;48.200;16.332;2022-12-13T01:16:29;-3.20;99.90
13880;DHT22;7010;48.200;16.332;2022-12-13T01:19:02;-3.20;99.90
13880;DHT22;7010;48.200;16.332;2022-12-13T01:21:37;-3.20;99.90
13880;DHT22;7010;48.200;16.332;2022-12-13T01:24:09;-3.20;99.90
13880;DHT22;7010;48.200;16.332;2022-12-13T01:26:38;-3.20;99.90
13880;DHT22;7010;48.200;16.332;2022-12-13T01:29:15;-3.20;99.90
13880;DHT22;7010;48.200;16.332;2022-12-13T01:31:45;-3.20;99.90
13880;DHT22;7010;48.200;16.332;2022-12-13T01:34:16;-3.20;99.90
13880;DHT22;7010;48.200;16.332;2022-12-13T01:36:46;-3.20;99.90
13880;DHT22;7010;48.200;16.332;2022-12-13T01:39:26;-3.30;99.90
13880;DHT22;7010;48.200;16.332;2022-12-13T01:42:18;-3.20;99.90
13880;DHT22;7010;48.200;16.332;2022-12-13T01:45:13;-3.30;99.90
13880;DHT22;7010;48.200;16.332;2022-12-13T01:48:00;-3.30;99.90
13880;DHT22;7010;48.200;16.332;2022-12-13T01:50:35;-3.20;99.90
13880;DHT22;7010;48.200;16.332;2022-12-13T01:53:07;-3.30;99.90
13880;DHT22;7010;48.200;16.332;2022-12-13T01:55:43;-3.20;99.90
13880;DHT22;7010;48.200;16.332;2022-12-13T01:58:16;-3.30;99.90
13880;DHT22;7010;48.200;16.332;2022-12-13T02:00:57;-3.30;99.90
13880;DHT22;7010;48.200;16.332;2022-12-13T02:03:31;-3.30;99.90
13880;DHT22;7010;48.200;16.332;2022-12-13T02:06:05;-3.30;99.90
13880;DHT22;7010;48.200;16.332;2022-12-13T02:08:40;-3.30;99.90
13880;DHT22;7010;48.200;16.332;2022-12-13T02:11:11;-3.40;99.90
13880;DHT22;7010;48.200;16.332;2022-12-13T02:13:42;-3.30;99.90
13880;DHT22;7010;48.200;16.332;2022-12-13T02:16:20;-3.40;99.90
13880;DHT22;7010;48.200;16.332;2022-12-13T02:18:59;-3.40;99.90
13880;DHT22;7010;48.200;16.332;2022-12-13T02:21:38;-3.40;99.90
13880;DHT22;7010;48.200;16.332;2022-12-13T02:27:06;-3.40;99.90
13880;DHT22;7010;48.200;16.332;2022-12-13T02:32:41;-3.50;99.90
13880;DHT22;7010;48.200;16.332;2022-12-13T02:35:17;-3.50;99.90
13880;DHT22;7010;48.200;16.332;2022-12-13T02:37:58;-3.50;99.90
13880;DHT22;7010;48.200;16.332;2022-12-13T02:40:38;-3.50;99.90
13880;DHT22;7010;48.200;16.332;2022-12-13T02:43:14;-3.50;99.90
13880;DHT22;7010;48.200;16.332;2022-12-13T02:45:52;-3.50;99.90
13880;DHT22;7010;48.200;16.332;2022-12-13T02:48:28;-3.50;99.90
13880;DHT22;7010;48.200;16.332;2022-12-13T02:50:58;-3.50;99.90
13880;DHT22;7010;48.200;16.332;2022-12-13T02:53:40;-3.40;99.90
13880;DHT22;7010;48.200;16.332;2022-12-13T02:56:14;-3.50;99.90
13880;DHT22;7010;48.200;16.332;2022-12-13T02:58:50;-3.40;99.90
13880;DHT22;7010;48.200;16.332;2022-12-13T03:01:35;-3.50;99.90
13880;DHT22;7010;48.200;16.332;2022-12-13T03:04:15;-3.50;99.90
13880;DHT22;7010;48.200;16.332;2022-12-13T03:07:00;-3.50;99.90
13880;DHT22;7010;48.200;16.332;2022-12-13T03:09:43;-3.50;99.90
13880;DHT22;7010;48.200;16.332;2022-12-13T03:12:24;-3.50;99.90
13880;DHT22;7010;48.200;16.332;2022-12-13T03:15:20;-3.50;99.90
13880;DHT22;7010;48.200;16.332;2022-12-13T03:17:58;-3.50;99.90
13880;DHT22;7010;48.200;16.332;2022-12-13T03:20:34;-3.50;99.90
13880;DHT22;7010;48.200;16.332;2022-12-13T03:23:09;-3.50;99.90
13880;DHT22;7010;48.200;16.332;2022-12-13T03:25:40;-3.50;99.90
13880;DHT22;7010;48.200;16.332;2022-12-13T03:28:09;-3.50;99.90
13880;DHT22;7010;48.200;16.332;2022-12-13T03:30:40;-3.50;99.90
13880;DHT22;7010;48.200;16.332;2022-12-13T03:33:15;-3.50;99.90
13880;DHT22;7010;48.200;16.332;2022-12-13T03:35:52;-3.50;99.90
13880;DHT22;7010;48.200;16.332;2022-12-13T03:38:30;-3.60;99.90
13880;DHT22;7010;48.200;16.332;2022-12-13T03:41:43;-3.60;99.90
13880;DHT22;7010;48.200;16.332;2022-12-13T03:44:34;-3.50;99.90
13880;DHT22;7010;48.200;16.332;2022-12-13T03:47:20;-3.60;99.90
13880;DHT22;7010;48.200;16.332;2022-12-13T03:49:54;-3.60;99.90
13880;DHT22;7010;48.200;16.332;2022-12-13T03:52:58;-3.70;99.90
13880;DHT22;7010;48.200;16.332;2022-12-13T03:55:31;-3.70;99.90
13880;DHT22;7010;48.200;16.332;2022-12-13T03:58:00;-3.80;99.90
13880;DHT22;7010;48.200;16.332;2022-12-13T04:00:33;-3.80;99.90
13880;DHT22;7010;48.200;16.332;2022-12-13T04:03:05;-3.80;99.90
13880;DHT22;7010;48.200;16.332;2022-12-13T04:05:35;-3.80;99.90
13880;DHT22;7010;48.200;16.332;2022-12-13T04:08:07;-3.80;99.90
13880;DHT22;7010;48.200;16.332;2022-12-13T04:10:51;-3.80;99.90
13880;DHT22;7010;48.200;16.332;2022-12-13T04:13:23;-3.90;99.90
13880;DHT22;7010;48.200;16.332;2022-12-13T04:16:00;-3.90;99.90
13880;DHT22;7010;48.200;16.332;2022-12-13T04:18:33;-3.80;99.90
13880;DHT22;7010;48.200;16.332;2022-12-13T04:21:04;-3.90;99.90
13880;DHT22;7010;48.200;16.332;2022-12-13T04:23:35;-3.80;99.90
13880;DHT22;7010;48.200;16.332;2022-12-13T04:26:07;-3.80;99.90
13880;DHT22;7010;48.200;16.332;2022-12-13T04:28:36;-3.80;99.90
13880;DHT22;7010;48.200;16.332;2022-12-13T04:31:17;-3.80;99.90
13880;DHT22;7010;48.200;16.332;2022-12-13T04:33:50;-3.90;99.90
13880;DHT22;7010;48.200;16.332;2022-12-13T04:36:20;-3.90;99.90
13880;DHT22;7010;48.200;16.332;2022-12-13T04:39:04;-3.90;99.90
13880;DHT22;7010;48.200;16.332;2022-12-13T04:41:51;-4.00;99.90
13880;DHT22;7010;48.200;16.332;2022-12-13T04:44:28;-4.00;99.90
13880;DHT22;7010;48.200;16.332;2022-12-13T04:47:06;-4.00;99.90
13880;DHT22;7010;48.200;16.332;2022-12-13T04:49:38;-4.10;99.90
13880;DHT22;7010;48.200;16.332;2022-12-13T04:52:10;-4.10;99.90
13880;DHT22;7010;48.200;16.332;2022-12-13T04:54:50;-4.10;99.90
13880;DHT22;7010;48.200;16.332;2022-12-13T04:57:24;-4.10;99.90
13880;DHT22;7010;48.200;16.332;2022-12-13T04:59:52;-4.10;99.90
13880;DHT22;7010;48.200;16.332;2022-12-13T05:02:21;-4.20;99.90
13880;DHT22;7010;48.200;16.332;2022-12-13T05:04:50;-4.20;99.90
13880;DHT22;7010;48.200;16.332;2022-12-13T05:07:20;-4.20;99.90
13880;DHT22;7010;48.200;16.332;2022-12-13T05:09:52;-4.20;99.90
13880;DHT22;7010;48.200;16.332;2022-12-13T05:12:21;-4.20;99.90
13880;DHT22;7010;48.200;16.332;2022-12-13T05:14:49;-4.20;99.90
13880;DHT22;7010;48.200;16.332;2022-12-13T05:17:18;-4.20;99.90
13880;DHT22;7010;48.200;16.332;2022-12-13T05:19:47;-4.30;99.90
13880;DHT22;7010;48.200;16.332;2022-12-13T05:22:16;-4.30;99.90
13880;DHT22;7010;48.200;16.332;2022-12-13T05:24:46;-4.40;99.90
13880;DHT22;7010;48.200;16.332;2022-12-13T05:27:17;-4.40;99.90
13880;DHT22;7010;48.200;16.332;2022-12-13T05:29:52;-4.40;99.90
13880;DHT22;7010;48.200;16.332;2022-12-13T05:32:32;-4.40;99.90
13880;DHT22;7010;48.200;16.332;2022-12-13T05:35:10;-4.40;99.90
13880;DHT22;7010;48.200;16.332;2022-12-13T05:37:40;-4.40;99.90
13880;DHT22;7010;48.200;16.332;2022-12-13T05:40:09;-4.40;99.90
13880;DHT22;7010;48.200;16.332;2022-12-13T05:42:39;-4.40;99.90
13880;DHT22;7010;48.200;16.332;2022-12-13T05:45:11;-4.50;99.90
13880;DHT22;7010;48.200;16.332;2022-12-13T05:47:53;-4.50;99.90
13880;DHT22;7010;48.200;16.332;2022-12-13T05:50:22;-4.60;99.90
13880;DHT22;7010;48.200;16.332;2022-12-13T05:52:51;-4.60;99.90
13880;DHT22;7010;48.200;16.332;2022-12-13T05:55:19;-4.60;99.90
13880;DHT22;7010;48.200;16.332;2022-12-13T05:58:13;-4.60;99.90
13880;DHT22;7010;48.200;16.332;2022-12-13T06:00:52;-4.60;99.90
13880;DHT22;7010;48.200;16.332;2022-12-13T06:03:31;-4.70;99.90
13880;DHT22;7010;48.200;16.332;2022-12-13T06:06:18;-4.70;99.90
13880;DHT22;7010;48.200;16.332;2022-12-13T06:08:57;-4.70;99.90
13880;DHT22;7010;48.200;16.332;2022-12-13T06:11:33;-4.60;99.90
13880;DHT22;7010;48.200;16.332;2022-12-13T06:14:13;-4.70;99.90
13880;DHT22;7010;48.200;16.332;2022-12-13T06:16:52;-4.70;99.90
13880;DHT22;7010;48.200;16.332;2022-12-13T06:19:26;-4.70;99.90
13880;DHT22;7010;48.200;16.332;2022-12-13T06:21:56;-4.80;99.90
13880;DHT22;7010;48.200;16.332;2022-12-13T06:24:34;-4.70;99.90
13880;DHT22;7010;48.200;16.332;2022-12-13T06:27:07;-4.70;99.90
13880;DHT22;7010;48.200;16.332;2022-12-13T06:29:47;-4.70;99.90
13880;DHT22;7010;48.200;16.332;2022-12-13T06:32:16;-4.70;99.90
13880;DHT22;7010;48.200;16.332;2022-12-13T06:34:51;-4.80;99.90
13880;DHT22;7010;48.200;16.332;2022-12-13T06:37:22;-4.80;99.90
13880;DHT22;7010;48.200;16.332;2022-12-13T06:40:03;-4.80;99.90
13880;DHT22;7010;48.200;16.332;2022-12-13T06:42:59;-4.80;99.90
13880;DHT22;7010;48.200;16.332;2022-12-13T06:46:20;-4.80;99.90
13880;DHT22;7010;48.200;16.332;2022-12-13T06:49:25;-4.80;99.90
13880;DHT22;7010;48.200;16.332;2022-12-13T06:52:07;-4.80;99.90
13880;DHT22;7010;48.200;16.332;2022-12-13T06:54:38;-4.80;99.90
13880;DHT22;7010;48.200;16.332;2022-12-13T06:57:27;-4.90;99.90
13880;DHT22;7010;48.200;16.332;2022-12-13T06:59:57;-4.90;99.90
13880;DHT22;7010;48.200;16.332;2022-12-13T07:02:33;-4.90;99.90
13880;DHT22;7010;48.200;16.332;2022-12-13T07:05:02;-5.00;99.90
13880;DHT22;7010;48.200;16.332;2022-12-13T07:07:30;-4.90;99.90
13880;DHT22;7010;48.200;16.332;2022-12-13T07:09:59;-5.00;99.90
13880;DHT22;7010;48.200;16.332;2022-12-13T07:12:28;-4.90;99.90
13880;DHT22;7010;48.200;16.332;2022-12-13T08:57:11;-2.90;99.90
13880;DHT22;7010;48.200;16.332;2022-12-13T09:30:53;-1.80;99.90
13880;DHT22;7010;48.200;16.332;2022-12-13T09:33:57;-1.70;99.90
13880;DHT22;7010;48.200;16.332;2022-12-13T09:36:25;-1.70;99.90
13880;DHT22;7010;48.200;16.332;2022-12-13T09:38:53;-1.60;99.90
13880;DHT22;7010;48.200;16.332;2022-12-13T09:41:30;-1.60;99.90
13880;DHT22;7010;48.200;16.332;2022-12-13T09:44:13;-1.50;99.90
13880;DHT22;7010;48.200;16.332;2022-12-13T09:47:02;-1.40;99.90
13880;DHT22;7010;48.200;16.332;2022-12-13T09:49:41;-1.30;99.90
13880;DHT22;7010;48.200;16.332;2022-12-13T09:52:20;-1.20;99.90
13880;DHT22;7010;48.200;16.332;2022-12-13T09:54:50;-1.10;99.90
13880;DHT22;7010;48.200;16.332;2022-12-13T09:57:22;-1.00;99.90
13880;DHT22;7010;48.200;16.332;2022-12-13T10:00:01;-0.90;99.90
13880;DHT22;7010;48.200;16.332;2022-12-13T10:02:32;-0.80;99.90
13880;DHT22;7010;48.200;16.332;2022-12-13T10:05:17;-0.70;99.90
13880;DHT22;7010;48.200;16.332;2022-12-13T10:07:50;-0.60;99.90
13880;DHT22;7010;48.200;16.332;2022-12-13T10:10:19;-0.50;99.90
13880;DHT22;7010;48.200;16.332;2022-12-13T10:12:54;-0.40;99.90
13880;DHT22;7010;48.200;16.332;2022-12-13T10:15:25;-0.20;99.90
13880;DHT22;7010;48.200;16.332;2022-12-13T10:17:56;-0.10;99.90
13880;DHT22;7010;48.200;16.332;2022-12-13T10:20:27;0.10;99.90
13880;DHT22;7010;48.200;16.332;2022-12-13T10:22:56;0.30;99.90
13880;DHT22;7010;48.200;16.332;2022-12-13T10:25:47;0.50;99.90
13880;DHT22;7010;48.200;16.332;2022-12-13T10:28:23;1.00;99.90
13880;DHT22;7010;48.200;16.332;2022-12-13T10:30:52;1.60;99.90
13880;DHT22;7010;48.200;16.332;2022-12-13T10:33:24;2.20;99.90
13880;DHT22;7010;48.200;16.332;2022-12-13T10:36:14;2.60;99.90
13880;DHT22;7010;48.200;16.332;2022-12-13T10:38:49;2.90;99.90
13880;DHT22;7010;48.200;16.332;2022-12-13T10:41:32;3.30;99.90
13880;DHT22;7010;48.200;16.332;2022-12-13T10:44:13;3.50;99.90
13880;DHT22;7010;48.200;16.332;2022-12-13T10:46:48;3.80;99.90
13880;DHT22;7010;48.200;16.332;2022-12-13T10:49:21;4.10;99.90
13880;DHT22;7010;48.200;16.332;2022-12-13T10:51:50;4.30;99.90
13880;DHT22;7010;48.200;16.332;2022-12-13T10:54:25;4.70;99.90
13880;DHT22;7010;48.200;16.332;2022-12-13T10:57:04;4.80;99.90
13880;DHT22;7010;48.200;16.332;2022-12-13T10:59:34;4.80;99.90
13880;DHT22;7010;48.200;16.332;2022-12-13T11:02:30;4.70;99.90
13880;DHT22;7010;48.200;16.332;2022-12-13T11:05:21;4.70;99.90
13880;DHT22;7010;48.200;16.332;2022-12-13T11:07:50;4.90;99.90
13880;DHT22;7010;48.200;16.332;2022-12-13T11:10:23;5.00;99.90
13880;DHT22;7010;48.200;16.332;2022-12-13T11:12:59;5.50;99.90
13880;DHT22;7010;48.200;16.332;2022-12-13T11:15:29;5.70;99.90
13880;DHT22;7010;48.200;16.332;2022-12-13T11:18:00;5.90;99.90
13880;DHT22;7010;48.200;16.332;2022-12-13T11:20:33;6.00;99.90
13880;DHT22;7010;48.200;16.332;2022-12-13T11:23:04;6.10;99.90
13880;DHT22;7010;48.200;16.332;2022-12-13T11:25:38;6.10;99.90
13880;DHT22;7010;48.200;16.332;2022-12-13T11:28:18;6.60;99.90
13880;DHT22;7010;48.200;16.332;2022-12-13T11:31:01;6.50;99.90
13880;DHT22;7010;48.200;16.332;2022-12-13T11:33:37;6.30;99.90
13880;DHT22;7010;48.200;16.332;2022-12-13T11:36:21;6.20;99.90
13880;DHT22;7010;48.200;16.332;2022-12-13T11:39:02;6.30;99.90
13880;DHT22;7010;48.200;16.332;2022-12-13T11:41:37;6.20;99.90
13880;DHT22;7010;48.200;16.332;2022-12-13T11:44:13;6.00;99.90
13880;DHT22;7010;48.200;16.332;2022-12-13T11:46:45;5.90;99.90
13880;DHT22;7010;48.200;16.332;2022-12-13T11:49:16;6.00;99.90
13880;DHT22;7010;48.200;16.332;2022-12-13T11:51:50;6.20;99.90
13880;DHT22;7010;48.200;16.332;2022-12-13T11:54:24;6.30;99.90
13880;DHT22;7010;48.200;16.332;2022-12-13T11:56:56;6.30;99.90
13880;DHT22;7010;48.200;16.332;2022-12-13T11:59:33;6.20;99.90
13880;DHT22;7010;48.200;16.332;2022-12-13T12:02:13;6.10;99.90
13880;DHT22;7010;48.200;16.332;2022-12-13T12:04:45;6.00;99.90
13880;DHT22;7010;48.200;16.332;2022-12-13T12:07:29;6.10;99.90
13880;DHT22;7010;48.200;16.332;2022-12-13T12:10:08;5.80;99.90
13880;DHT22;7010;48.200;16.332;2022-12-13T12:12:46;5.80;99.90
13880;DHT22;7010;48.200;16.332;2022-12-13T12:15:17;5.80;99.90
13880;DHT22;7010;48.200;16.332;2022-12-13T12:17:53;5.80;99.90
13880;DHT22;7010;48.200;16.332;2022-12-13T12:20:26;5.90;99.90
13880;DHT22;7010;48.200;16.332;2022-12-13T12:23:13;6.00;99.90
13880;DHT22;7010;48.200;16.332;2022-12-13T12:25:50;6.00;99.90
13880;DHT22;7010;48.200;16.332;2022-12-13T12:28:25;5.80;99.90
13880;DHT22;7010;48.200;16.332;2022-12-13T12:31:02;5.70;99.90
13880;DHT22;7010;48.200;16.332;2022-12-13T12:33:41;5.70;99.90
13880;DHT22;7010;48.200;16.332;2022-12-13T12:36:29;5.70;99.90
13880;DHT22;7010;48.200;16.332;2022-12-13T12:39:26;5.90;99.90
13880;DHT22;7010;48.200;16.332;2022-12-13T12:45:32;5.70;99.90
13880;DHT22;7010;48.200;16.332;2022-12-13T12:48:35;5.70;99.90
13880;DHT22;7010;48.200;16.332;2022-12-13T12:51:33;5.60;99.90
13880;DHT22;7010;48.200;16.332;2022-12-13T12:54:17;5.70;99.90
13880;DHT22;7010;48.200;16.332;2022-12-13T12:57:04;5.80;99.90
13880;DHT22;7010;48.200;16.332;2022-12-13T12:59:42;6.10;99.90
13880;DHT22;7010;48.200;16.332;2022-12-13T13:02:17;6.00;99.90
13880;DHT22;7010;48.200;16.332;2022-12-13T13:05:02;6.10;99.90
13880;DHT22;7010;48.200;16.332;2022-12-13T13:07:37;6.10;99.90
13880;DHT22;7010;48.200;16.332;2022-12-13T13:10:17;6.30;99.90
13880;DHT22;7010;48.200;16.332;2022-12-13T13:12:54;6.30;99.90
13880;DHT22;7010;48.200;16.332;2022-12-13T13:15:55;6.50;99.90
13880;DHT22;7010;48.200;16.332;2022-12-13T13:18:46;6.60;99.90
13880;DHT22;7010;48.200;16.332;2022-12-13T13:21:25;6.70;99.90
13880;DHT22;7010;48.200;16.332;2022-12-13T13:24:16;6.90;99.90
13880;DHT22;7010;48.200;16.332;2022-12-13T13:26:46;6.70;99.90
13880;DHT22;7010;48.200;16.332;2022-12-13T13:29:31;6.70;99.90
13880;DHT22;7010;48.200;16.332;2022-12-13T13:41:45;5.30;99.90
13880;DHT22;7010;48.200;16.332;2022-12-13T13:47:41;4.70;99.90
13880;DHT22;7010;48.200;16.332;2022-12-13T13:53:49;4.10;99.90
13880;DHT22;7010;48.200;16.332;2022-12-13T13:56:43;3.90;99.90
13880;DHT22;7010;48.200;16.332;2022-12-13T14:08:45;2.80;99.90
13880;DHT22;7010;48.200;16.332;2022-12-13T14:11:40;2.60;99.90
13880;DHT22;7010;48.200;16.332;2022-12-13T14:14:57;2.50;99.90
13880;DHT22;7010;48.200;16.332;2022-12-13T14:21:08;2.00;99.90
13880;DHT22;7010;48.200;16.332;2022-12-13T14:23:54;1.80;99.90
13880;DHT22;7010;48.200;16.332;2022-12-13T14:27:00;1.70;99.90
13880;DHT22;7010;48.200;16.332;2022-12-13T14:29:32;1.50;99.90
13880;DHT22;7010;48.200;16.332;2022-12-13T14:32:01;1.40;99.90
13880;DHT22;7010;48.200;16.332;2022-12-13T14:34:53;1.30;99.90
13880;DHT22;7010;48.200;16.332;2022-12-13T14:37:25;1.20;99.90
13880;DHT22;7010;48.200;16.332;2022-12-13T14:40:00;1.10;99.90
13880;DHT22;7010;48.200;16.332;2022-12-13T14:42:31;1.00;99.90
13880;DHT22;7010;48.200;16.332;2022-12-13T14:45:13;1.00;99.90
13880;DHT22;7010;48.200;16.332;2022-12-13T14:47:43;0.90;99.90
13880;DHT22;7010;48.200;16.332;2022-12-13T14:50:15;0.90;99.90
13880;DHT22;7010;48.200;16.332;2022-12-13T14:52:44;0.80;99.90
13880;DHT22;7010;48.200;16.332;2022-12-13T14:55:23;0.80;99.90
13880;DHT22;7010;48.200;16.332;2022-12-13T14:57:54;0.70;99.90
13880;DHT22;7010;48.200;16.332;2022-12-13T15:00:25;0.60;99.90
13880;DHT22;7010;48.200;16.332;2022-12-13T15:02:56;0.60;99.90
13880;DHT22;7010;48.200;16.332;2022-12-13T15:05:28;0.50;99.90
13880;DHT22;7010;48.200;16.332;2022-12-13T15:07:57;0.50;99.90
13880;DHT22;7010;48.200;16.332;2022-12-13T15:10:40;0.40;99.90
13880;DHT22;7010;48.200;16.332;2022-12-13T15:13:24;0.40;99.90
13880;DHT22;7010;48.200;16.332;2022-12-13T15:15:57;0.40;99.90
13880;DHT22;7010;48.200;16.332;2022-12-13T15:18:28;0.40;99.90
13880;DHT22;7010;48.200;16.332;2022-12-13T15:20:59;0.30;99.90
13880;DHT22;7010;48.200;16.332;2022-12-13T15:23:37;0.30;99.90
13880;DHT22;7010;48.200;16.332;2022-12-13T15:26:18;0.20;99.90
13880;DHT22;7010;48.200;16.332;2022-12-13T15:28:59;0.20;99.90
13880;DHT22;7010;48.200;16.332;2022-12-13T15:31:36;0.20;99.90
13880;DHT22;7010;48.200;16.332;2022-12-13T15:34:29;0.20;99.90
13880;DHT22;7010;48.200;16.332;2022-12-13T15:37:00;0.10;99.90
13880;DHT22;7010;48.200;16.332;2022-12-13T15:39:30;0.10;99.90
13880;DHT22;7010;48.200;16.332;2022-12-13T15:42:04;0.00;99.90
13880;DHT22;7010;48.200;16.332;2022-12-13T15:44:38;0.00;99.90
13880;DHT22;7010;48.200;16.332;2022-12-13T15:47:15;0.00;99.90
13880;DHT22;7010;48.200;16.332;2022-12-13T15:49:56;0.00;99.90
13880;DHT22;7010;48.200;16.332;2022-12-13T15:52:32;-0.10;99.90
13880;DHT22;7010;48.200;16.332;2022-12-13T15:55:21;-0.10;99.90
13880;DHT22;7010;48.200;16.332;2022-12-13T15:57:56;-0.10;99.90
13880;DHT22;7010;48.200;16.332;2022-12-13T16:00:26;-0.10;99.90
13880;DHT22;7010;48.200;16.332;2022-12-13T16:03:01;-0.20;99.90
13880;DHT22;7010;48.200;16.332;2022-12-13T16:05:36;-0.10;99.90
13880;DHT22;7010;48.200;16.332;2022-12-13T16:08:07;-0.20;99.90
13880;DHT22;7010;48.200;16.332;2022-12-13T16:10:46;-0.20;99.90
13880;DHT22;7010;48.200;16.332;2022-12-13T16:13:22;-0.20;99.90
13880;DHT22;7010;48.200;16.332;2022-12-13T16:15:54;-0.30;99.90
13880;DHT22;7010;48.200;16.332;2022-12-13T16:18:31;-0.30;99.90
13880;DHT22;7010;48.200;16.332;2022-12-13T16:20:59;-0.30;99.90
13880;DHT22;7010;48.200;16.332;2022-12-13T16:23:27;-0.30;99.90
13880;DHT22;7010;48.200;16.332;2022-12-13T16:25:56;-0.30;99.90
13880;DHT22;7010;48.200;16.332;2022-12-13T16:28:30;-0.40;99.90
13880;DHT22;7010;48.200;16.332;2022-12-13T16:31:03;-0.40;99.90
13880;DHT22;7010;48.200;16.332;2022-12-13T16:33:32;-0.40;99.90
13880;DHT22;7010;48.200;16.332;2022-12-13T16:36:01;-0.40;99.90
13880;DHT22;7010;48.200;16.332;2022-12-13T16:38:29;-0.50;99.90
13880;DHT22;7010;48.200;16.332;2022-12-13T16:40:59;-0.50;99.90
13880;DHT22;7010;48.200;16.332;2022-12-13T16:43:43;-0.50;99.90
13880;DHT22;7010;48.200;16.332;2022-12-13T16:46:13;-0.50;99.90
13880;DHT22;7010;48.200;16.332;2022-12-13T16:49:07;-0.60;99.90
13880;DHT22;7010;48.200;16.332;2022-12-13T16:51:35;-0.60;99.90
13880;DHT22;7010;48.200;16.332;2022-12-13T16:54:07;-0.60;99.90
13880;DHT22;7010;48.200;16.332;2022-12-13T16:56:35;-0.60;99.90
13880;DHT22;7010;48.200;16.332;2022-12-13T16:59:07;-0.60;99.90
13880;DHT22;7010;48.200;16.332;2022-12-13T17:01:36;-0.60;99.90
13880;DHT22;7010;48.200;16.332;2022-12-13T17:04:05;-0.60;99.90
13880;DHT22;7010;48.200;16.332;2022-12-13T17:06:42;-0.60;99.90
13880;DHT22;7010;48.200;16.332;2022-12-13T17:09:10;-0.60;99.90
13880;DHT22;7010;48.200;16.332;2022-12-13T17:11:38;-0.70;99.90
13880;DHT22;7010;48.200;16.332;2022-12-13T17:14:08;-0.70;99.90
13880;DHT22;7010;48.200;16.332;2022-12-13T17:16:37;-0.70;99.90
13880;DHT22;7010;48.200;16.332;2022-12-13T17:19:05;-0.70;99.90
13880;DHT22;7010;48.200;16.332;2022-12-13T17:21:33;-0.70;99.90
13880;DHT22;7010;48.200;16.332;2022-12-13T17:24:02;-0.70;99.90
13880;DHT22;7010;48.200;16.332;2022-12-13T17:26:30;-0.80;99.90
13880;DHT22;7010;48.200;16.332;2022-12-13T17:28:58;-0.80;99.90
13880;DHT22;7010;48.200;16.332;2022-12-13T17:31:28;-0.80;99.90
13880;DHT22;7010;48.200;16.332;2022-12-13T17:34:01;-0.80;99.90
13880;DHT22;7010;48.200;16.332;2022-12-13T17:36:31;-0.80;99.90
13880;DHT22;7010;48.200;16.332;2022-12-13T17:38:59;-0.80;99.90
13880;DHT22;7010;48.200;16.332;2022-12-13T17:41:28;-0.90;99.90
13880;DHT22;7010;48.200;16.332;2022-12-13T17:43:57;-0.90;99.90
13880;DHT22;7010;48.200;16.332;2022-12-13T17:46:28;-0.90;99.90
13880;DHT22;7010;48.200;16.332;2022-12-13T17:48:56;-0.90;99.90
13880;DHT22;7010;48.200;16.332;2022-12-13T17:51:25;-0.90;99.90
13880;DHT22;7010;48.200;16.332;2022-12-13T17:53:53;-0.90;99.90
13880;DHT22;7010;48.200;16.332;2022-12-13T17:56:21;-0.90;99.90
13880;DHT22;7010;48.200;16.332;2022-12-13T17:58:49;-1.00;99.90
13880;DHT22;7010;48.200;16.332;2022-12-13T18:01:19;-1.00;99.90
13880;DHT22;7010;48.200;16.332;2022-12-13T18:03:51;-0.90;99.90
13880;DHT22;7010;48.200;16.332;2022-12-13T18:06:20;-1.00;99.90
13880;DHT22;7010;48.200;16.332;2022-12-13T18:08:48;-1.00;99.90
13880;DHT22;7010;48.200;16.332;2022-12-13T18:11:17;-1.00;99.90
13880;DHT22;7010;48.200;16.332;2022-12-13T18:13:59;-1.00;99.90
13880;DHT22;7010;48.200;16.332;2022-12-13T18:16:28;-1.00;99.90
13880;DHT22;7010;48.200;16.332;2022-12-13T18:19:05;-1.10;99.90
13880;DHT22;7010;48.200;16.332;2022-12-13T18:21:34;-1.10;99.90
13880;DHT22;7010;48.200;16.332;2022-12-13T18:24:04;-1.10;99.90
13880;DHT22;7010;48.200;16.332;2022-12-13T18:26:32;-1.10;99.90
13880;DHT22;7010;48.200;16.332;2022-12-13T18:29:01;-1.10;99.90
13880;DHT22;7010;48.200;16.332;2022-12-13T18:31:29;-1.10;99.90
13880;DHT22;7010;48.200;16.332;2022-12-13T18:33:58;-1.10;99.90
13880;DHT22;7010;48.200;16.332;2022-12-13T18:36:28;-1.10;99.90
13880;DHT22;7010;48.200;16.332;2022-12-13T18:38:57;-1.20;99.90
13880;DHT22;7010;48.200;16.332;2022-12-13T18:41:27;-1.20;99.90
13880;DHT22;7010;48.200;16.332;2022-12-13T18:43:57;-1.20;99.90
13880;DHT22;7010;48.200;16.332;2022-12-13T18:46:26;-1.20;99.90
13880;DHT22;7010;48.200;16.332;2022-12-13T18:48:56;-1.30;99.90
13880;DHT22;7010;48.200;16.332;2022-12-13T18:51:25;-1.30;99.90
13880;DHT22;7010;48.200;16.332;2022-12-13T18:53:55;-1.30;99.90
13880;DHT22;7010;48.200;16.332;2022-12-13T18:56:24;-1.20;99.90
13880;DHT22;7010;48.200;16.332;2022-12-13T18:58:53;-1.30;99.90
13880;DHT22;7010;48.200;16.332;2022-12-13T19:01:21;-1.30;99.90
13880;DHT22;7010;48.200;16.332;2022-12-13T19:03:53;-1.30;99.90
13880;DHT22;7010;48.200;16.332;2022-12-13T19:06:23;-1.30;99.90
13880;DHT22;7010;48.200;16.332;2022-12-13T19:08:55;-1.30;99.90
13880;DHT22;7010;48.200;16.332;2022-12-13T19:11:25;-1.40;99.90
13880;DHT22;7010;48.200;16.332;2022-12-13T19:13:54;-1.40;99.90
13880;DHT22;7010;48.200;16.332;2022-12-13T19:16:23;-1.40;99.90
13880;DHT22;7010;48.200;16.332;2022-12-13T19:18:52;-1.40;99.90
13880;DHT22;7010;48.200;16.332;2022-12-13T19:21:21;-1.40;99.90
13880;DHT22;7010;48.200;16.332;2022-12-13T19:23:50;-1.40;99.90